sensor_id;sensor_type;location;lat;lon;timestamp;P1;durP1;ratioP1;P2;durP2;ratioP2
49241;SDS011;35079;52.704;13.814;2023-01-24T00:02:03;13.68;;;9.45;;
49241;SDS011;35079;52.704;13.814;2023-01-24T00:04:29;14.68;;;9.10;;
49241;SDS011;35079;52.704;13.814;2023-01-24T00:06:54;13.93;;;8.93;;
49241;SDS011;35079;52.704;13.814;2023-01-24T00:09:20;16.48;;;9.98;;
49241;SDS011;35079;52.704;13.814;2023-01-24T00:11:46;13.90;;;9.23;;
49241;SDS011;35079;52.704;13.814;2023-01-24T00:14:11;13.20;;;9.10;;
49241;SDS011;35079;52.704;13.814;2023-01-24T00:16:37;14.40;;;9.00;;
49241;SDS011;35079;52.704;13.814;2023-01-24T00:21:56;14.70;;;9.32;;
49241;SDS011;35079;52.704;13.814;2023-01-24T00:24:21;14.07;;;9.43;;
49241;SDS011;35079;52.704;13.814;2023-01-24T00:26:47;13.65;;;8.88;;
49241;SDS011;35079;52.704;13.814;2023-01-24T00:29:13;13.45;;;8.65;;
49241;SDS011;35079;52.704;13.814;2023-01-24T00:31:38;12.43;;;8.88;;
49241;SDS011;35079;52.704;13.814;2023-01-24T00:34:04;13.38;;;9.18;;
49241;SDS011;35079;52.704;13.814;2023-01-24T00:36:29;12.68;;;8.35;;
49241;SDS011;35079;52.704;13.814;2023-01-24T00:38:55;14.63;;;9.60;;
49241;SDS011;35079;52.704;13.814;2023-01-24T00:41:21;13.88;;;9.50;;
49241;SDS011;35079;52.704;13.814;2023-01-24T00:43:46;16.63;;;9.20;;
49241;SDS011;35079;52.704;13.814;2023-01-24T00:46:12;13.55;;;8.75;;
49241;SDS011;35079;52.704;13.814;2023-01-24T00:48:37;13.88;;;9.13;;
49241;SDS011;35079;52.704;13.814;2023-01-24T00:51:03;16.92;;;9.20;;
49241;SDS011;35079;52.704;13.814;2023-01-24T00:53:29;16.00;;;9.73;;
49241;SDS011;35079;52.704;13.814;2023-01-24T00:55:55;13.15;;;8.10;;
49241;SDS011;35079;52.704;13.814;2023-01-24T00:58:21;15.10;;;9.75;;
49241;SDS011;35079;52.704;13.814;2023-01-24T01:00:47;13.45;;;8.93;;
49241;SDS011;35079;52.704;13.814;2023-01-24T01:03:14;15.00;;;10.73;;
49241;SDS011;35079;52.704;13.814;2023-01-24T01:05:41;11.70;;;8.70;;
49241;SDS011;35079;52.704;13.814;2023-01-24T01:08:08;12.65;;;8.00;;
49241;SDS011;35079;52.704;13.814;2023-01-24T01:10:46;13.48;;;8.93;;
49241;SDS011;35079;52.704;13.814;2023-01-24T01:13:12;12.38;;;8.68;;
49241;SDS011;35079;52.704;13.814;2023-01-24T01:15:38;17.50;;;9.38;;
49241;SDS011;35079;52.704;13.814;2023-01-24T01:18:03;12.63;;;8.68;;
49241;SDS011;35079;52.704;13.814;2023-01-24T01:20:29;13.02;;;8.75;;
49241;SDS011;35079;52.704;13.814;2023-01-24T01:22:54;13.75;;;8.88;;
49241;SDS011;35079;52.704;13.814;2023-01-24T01:25:20;14.43;;;8.40;;
49241;SDS011;35079;52.704;13.814;2023-01-24T01:27:46;12.93;;;8.50;;
49241;SDS011;35079;52.704;13.814;2023-01-24T01:30:11;13.13;;;8.52;;
49241;SDS011;35079;52.704;13.814;2023-01-24T01:32:37;13.48;;;8.85;;
49241;SDS011;35079;52.704;13.814;2023-01-24T01:35:03;14.63;;;8.88;;
49241;SDS011;35079;52.704;13.814;2023-01-24T01:37:29;14.07;;;8.75;;
49241;SDS011;35079;52.704;13.814;2023-01-24T01:39:54;15.93;;;9.05;;
49241;SDS011;35079;52.704;13.814;2023-01-24T01:42:20;12.05;;;9.23;;
49241;SDS011;35079;52.704;13.814;2023-01-24T01:44:46;14.05;;;8.43;;
49241;SDS011;35079;52.704;13.814;2023-01-24T01:47:31;12.60;;;8.52;;
49241;SDS011;35079;52.704;13.814;2023-01-24T01:50:03;12.13;;;8.65;;
49241;SDS011;35079;52.704;13.814;2023-01-24T01:52:38;14.52;;;9.85;;
49241;SDS011;35079;52.704;13.814;2023-01-24T01:55:08;12.55;;;8.88;;
49241;SDS011;35079;52.704;13.814;2023-01-24T01:57:37;11.30;;;8.70;;
49241;SDS011;35079;52.704;13.814;2023-01-24T02:00:09;12.43;;;7.85;;
49241;SDS011;35079;52.704;13.814;2023-01-24T02:02:37;12.52;;;8.32;;
49241;SDS011;35079;52.704;13.814;2023-01-24T02:05:06;13.52;;;8.63;;
49241;SDS011;35079;52.704;13.814;2023-01-24T02:07:44;12.30;;;8.38;;
49241;SDS011;35079;52.704;13.814;2023-01-24T02:10:16;13.20;;;9.07;;
49241;SDS011;35079;52.704;13.814;2023-01-24T02:12:45;15.02;;;9.45;;
49241;SDS011;35079;52.704;13.814;2023-01-24T02:15:14;13.05;;;9.07;;
49241;SDS011;35079;52.704;13.814;2023-01-24T02:18:02;13.70;;;8.43;;
49241;SDS011;35079;52.704;13.814;2023-01-24T02:20:36;13.10;;;8.88;;
49241;SDS011;35079;52.704;13.814;2023-01-24T02:28:44;13.18;;;8.68;;
49241;SDS011;35079;52.704;13.814;2023-01-24T02:31:13;18.13;;;9.75;;
49241;SDS011;35079;52.704;13.814;2023-01-24T02:33:39;16.08;;;10.18;;
49241;SDS011;35079;52.704;13.814;2023-01-24T02:39:01;14.32;;;8.90;;
49241;SDS011;35079;52.704;13.814;2023-01-24T02:41:43;15.73;;;9.35;;
49241;SDS011;35079;52.704;13.814;2023-01-24T02:44:42;14.68;;;9.45;;
49241;SDS011;35079;52.704;13.814;2023-01-24T02:47:31;14.00;;;9.20;;
49241;SDS011;35079;52.704;13.814;2023-01-24T02:53:23;14.82;;;9.32;;
49241;SDS011;35079;52.704;13.814;2023-01-24T02:55:56;14.60;;;9.68;;
49241;SDS011;35079;52.704;13.814;2023-01-24T02:58:44;16.52;;;10.27;;
49241;SDS011;35079;52.704;13.814;2023-01-24T03:01:10;17.70;;;10.07;;
49241;SDS011;35079;52.704;13.814;2023-01-24T03:03:37;17.02;;;10.07;;
49241;SDS011;35079;52.704;13.814;2023-01-24T03:06:03;21.77;;;10.73;;
49241;SDS011;35079;52.704;13.814;2023-01-24T03:08:30;19.27;;;10.23;;
49241;SDS011;35079;52.704;13.814;2023-01-24T03:10:57;19.77;;;11.05;;
49241;SDS011;35079;52.704;13.814;2023-01-24T03:13:23;29.48;;;12.35;;
49241;SDS011;35079;52.704;13.814;2023-01-24T03:18:52;24.25;;;10.80;;
49241;SDS011;35079;52.704;13.814;2023-01-24T03:21:36;20.90;;;11.02;;
49241;SDS011;35079;52.704;13.814;2023-01-24T03:24:21;24.58;;;12.25;;
49241;SDS011;35079;52.704;13.814;2023-01-24T03:29:50;25.05;;;11.32;;
49241;SDS011;35079;52.704;13.814;2023-01-24T03:32:34;28.40;;;12.77;;
49241;SDS011;35079;52.704;13.814;2023-01-24T03:35:18;33.97;;;13.48;;
49241;SDS011;35079;52.704;13.814;2023-01-24T03:37:44;28.45;;;12.57;;
49241;SDS011;35079;52.704;13.814;2023-01-24T03:40:28;30.40;;;13.77;;
49241;SDS011;35079;52.704;13.814;2023-01-24T03:42:54;41.90;;;14.48;;
49241;SDS011;35079;52.704;13.814;2023-01-24T03:45:20;44.95;;;17.27;;
49241;SDS011;35079;52.704;13.814;2023-01-24T03:47:55;43.53;;;15.38;;
49241;SDS011;35079;52.704;13.814;2023-01-24T03:50:28;49.40;;;18.77;;
49241;SDS011;35079;52.704;13.814;2023-01-24T03:53:16;52.85;;;19.00;;
49241;SDS011;35079;52.704;13.814;2023-01-24T03:55:43;55.22;;;18.30;;
49241;SDS011;35079;52.704;13.814;2023-01-24T03:58:09;52.30;;;18.25;;
49241;SDS011;35079;52.704;13.814;2023-01-24T04:00:41;58.78;;;18.90;;
49241;SDS011;35079;52.704;13.814;2023-01-24T04:03:07;53.28;;;18.50;;
49241;SDS011;35079;52.704;13.814;2023-01-24T04:05:33;56.00;;;19.38;;
49241;SDS011;35079;52.704;13.814;2023-01-24T04:08:00;56.55;;;20.08;;
49241;SDS011;35079;52.704;13.814;2023-01-24T04:13:11;66.25;;;20.92;;
49241;SDS011;35079;52.704;13.814;2023-01-24T04:15:37;64.18;;;20.50;;
49241;SDS011;35079;52.704;13.814;2023-01-24T04:18:04;62.45;;;22.02;;
49241;SDS011;35079;52.704;13.814;2023-01-24T04:20:31;62.10;;;22.15;;
49241;SDS011;35079;52.704;13.814;2023-01-24T04:23:00;67.72;;;21.98;;
49241;SDS011;35079;52.704;13.814;2023-01-24T04:25:26;64.85;;;20.77;;
49241;SDS011;35079;52.704;13.814;2023-01-24T04:27:52;67.00;;;21.85;;
49241;SDS011;35079;52.704;13.814;2023-01-24T04:30:18;65.05;;;21.35;;
49241;SDS011;35079;52.704;13.814;2023-01-24T04:32:44;66.53;;;21.15;;
49241;SDS011;35079;52.704;13.814;2023-01-24T04:35:14;58.08;;;20.48;;
49241;SDS011;35079;52.704;13.814;2023-01-24T04:37:41;64.70;;;22.33;;
49241;SDS011;35079;52.704;13.814;2023-01-24T04:40:07;68.20;;;21.45;;
49241;SDS011;35079;52.704;13.814;2023-01-24T04:42:33;60.85;;;21.05;;
49241;SDS011;35079;52.704;13.814;2023-01-24T04:44:59;59.72;;;21.02;;
49241;SDS011;35079;52.704;13.814;2023-01-24T04:47:25;61.13;;;21.17;;
49241;SDS011;35079;52.704;13.814;2023-01-24T04:49:51;70.07;;;22.10;;
49241;SDS011;35079;52.704;13.814;2023-01-24T04:52:16;74.63;;;23.13;;
49241;SDS011;35079;52.704;13.814;2023-01-24T04:54:42;67.28;;;22.35;;
49241;SDS011;35079;52.704;13.814;2023-01-24T04:57:09;70.22;;;22.67;;
49241;SDS011;35079;52.704;13.814;2023-01-24T04:59:36;71.78;;;24.70;;
49241;SDS011;35079;52.704;13.814;2023-01-24T05:02:02;73.80;;;23.85;;
49241;SDS011;35079;52.704;13.814;2023-01-24T05:04:28;70.82;;;23.92;;
49241;SDS011;35079;52.704;13.814;2023-01-24T05:06:54;64.45;;;22.60;;
49241;SDS011;35079;52.704;13.814;2023-01-24T05:09:19;65.57;;;23.77;;
49241;SDS011;35079;52.704;13.814;2023-01-24T05:11:45;68.47;;;22.33;;
49241;SDS011;35079;52.704;13.814;2023-01-24T05:14:11;64.85;;;22.35;;
49241;SDS011;35079;52.704;13.814;2023-01-24T05:16:36;68.95;;;22.58;;
49241;SDS011;35079;52.704;13.814;2023-01-24T05:19:03;72.30;;;23.58;;
49241;SDS011;35079;52.704;13.814;2023-01-24T05:21:29;72.35;;;23.88;;
49241;SDS011;35079;52.704;13.814;2023-01-24T05:23:54;73.38;;;24.23;;
49241;SDS011;35079;52.704;13.814;2023-01-24T05:26:21;80.20;;;25.48;;
49241;SDS011;35079;52.704;13.814;2023-01-24T05:28:49;72.35;;;25.02;;
49241;SDS011;35079;52.704;13.814;2023-01-24T05:31:15;68.72;;;25.20;;
49241;SDS011;35079;52.704;13.814;2023-01-24T05:33:41;76.40;;;25.13;;
49241;SDS011;35079;52.704;13.814;2023-01-24T05:36:11;78.95;;;24.48;;
49241;SDS011;35079;52.704;13.814;2023-01-24T05:38:39;78.43;;;25.45;;
49241;SDS011;35079;52.704;13.814;2023-01-24T05:41:06;78.07;;;26.58;;
49241;SDS011;35079;52.704;13.814;2023-01-24T05:43:34;71.63;;;24.20;;
49241;SDS011;35079;52.704;13.814;2023-01-24T05:46:00;79.40;;;25.38;;
49241;SDS011;35079;52.704;13.814;2023-01-24T05:48:28;78.22;;;27.33;;
49241;SDS011;35079;52.704;13.814;2023-01-24T05:53:31;69.80;;;23.00;;
49241;SDS011;35079;52.704;13.814;2023-01-24T05:55:59;77.97;;;26.25;;
49241;SDS011;35079;52.704;13.814;2023-01-24T05:58:27;82.05;;;24.63;;
49241;SDS011;35079;52.704;13.814;2023-01-24T06:00:54;77.03;;;25.70;;
49241;SDS011;35079;52.704;13.814;2023-01-24T06:03:20;73.90;;;24.85;;
49241;SDS011;35079;52.704;13.814;2023-01-24T06:05:54;74.38;;;25.00;;
49241;SDS011;35079;52.704;13.814;2023-01-24T06:08:20;73.73;;;24.77;;
49241;SDS011;35079;52.704;13.814;2023-01-24T06:10:46;72.90;;;24.48;;
49241;SDS011;35079;52.704;13.814;2023-01-24T06:13:12;67.40;;;24.15;;
49241;SDS011;35079;52.704;13.814;2023-01-24T06:15:38;84.43;;;25.35;;
49241;SDS011;35079;52.704;13.814;2023-01-24T06:18:05;66.35;;;25.98;;
49241;SDS011;35079;52.704;13.814;2023-01-24T06:20:36;67.40;;;23.13;;
49241;SDS011;35079;52.704;13.814;2023-01-24T06:23:03;63.92;;;22.30;;
49241;SDS011;35079;52.704;13.814;2023-01-24T06:25:31;68.38;;;23.08;;
49241;SDS011;35079;52.704;13.814;2023-01-24T06:27:58;55.63;;;21.55;;
49241;SDS011;35079;52.704;13.814;2023-01-24T06:30:24;55.95;;;20.98;;
49241;SDS011;35079;52.704;13.814;2023-01-24T06:38:14;47.85;;;18.75;;
49241;SDS011;35079;52.704;13.814;2023-01-24T06:40:47;48.95;;;18.90;;
49241;SDS011;35079;52.704;13.814;2023-01-24T06:43:17;50.28;;;20.83;;
49241;SDS011;35079;52.704;13.814;2023-01-24T06:45:43;44.13;;;20.13;;
49241;SDS011;35079;52.704;13.814;2023-01-24T06:48:09;51.15;;;21.35;;
49241;SDS011;35079;52.704;13.814;2023-01-24T06:50:34;47.90;;;20.67;;
49241;SDS011;35079;52.704;13.814;2023-01-24T06:53:00;52.50;;;20.02;;
49241;SDS011;35079;52.704;13.814;2023-01-24T06:55:26;54.25;;;20.58;;
49241;SDS011;35079;52.704;13.814;2023-01-24T06:57:55;50.10;;;19.75;;
49241;SDS011;35079;52.704;13.814;2023-01-24T07:00:24;53.20;;;19.77;;
49241;SDS011;35079;52.704;13.814;2023-01-24T07:02:57;51.05;;;20.02;;
49241;SDS011;35079;52.704;13.814;2023-01-24T07:05:23;51.58;;;21.70;;
49241;SDS011;35079;52.704;13.814;2023-01-24T07:07:50;52.40;;;19.67;;
49241;SDS011;35079;52.704;13.814;2023-01-24T07:10:15;49.05;;;18.98;;
49241;SDS011;35079;52.704;13.814;2023-01-24T07:12:42;51.45;;;20.10;;
49241;SDS011;35079;52.704;13.814;2023-01-24T07:15:08;49.35;;;19.77;;
49241;SDS011;35079;52.704;13.814;2023-01-24T07:17:33;45.63;;;18.85;;
49241;SDS011;35079;52.704;13.814;2023-01-24T07:19:59;47.58;;;19.73;;
49241;SDS011;35079;52.704;13.814;2023-01-24T07:22:25;48.92;;;19.95;;
49241;SDS011;35079;52.704;13.814;2023-01-24T07:24:51;48.85;;;19.38;;
49241;SDS011;35079;52.704;13.814;2023-01-24T07:27:18;49.95;;;19.48;;
49241;SDS011;35079;52.704;13.814;2023-01-24T07:29:44;43.95;;;18.58;;
49241;SDS011;35079;52.704;13.814;2023-01-24T07:32:10;43.28;;;19.25;;
49241;SDS011;35079;52.704;13.814;2023-01-24T07:34:36;42.55;;;18.90;;
49241;SDS011;35079;52.704;13.814;2023-01-24T07:37:02;44.95;;;18.75;;
49241;SDS011;35079;52.704;13.814;2023-01-24T07:39:27;42.05;;;17.90;;
49241;SDS011;35079;52.704;13.814;2023-01-24T07:41:54;44.22;;;19.52;;
49241;SDS011;35079;52.704;13.814;2023-01-24T07:44:19;42.45;;;18.48;;
49241;SDS011;35079;52.704;13.814;2023-01-24T07:46:45;44.63;;;17.98;;
49241;SDS011;35079;52.704;13.814;2023-01-24T07:49:10;42.88;;;18.08;;
49241;SDS011;35079;52.704;13.814;2023-01-24T07:51:36;38.08;;;17.50;;
49241;SDS011;35079;52.704;13.814;2023-01-24T07:54:02;38.97;;;18.95;;
49241;SDS011;35079;52.704;13.814;2023-01-24T07:56:28;42.65;;;18.52;;
49241;SDS011;35079;52.704;13.814;2023-01-24T07:58:53;46.47;;;18.60;;
49241;SDS011;35079;52.704;13.814;2023-01-24T08:01:21;39.83;;;18.70;;
49241;SDS011;35079;52.704;13.814;2023-01-24T08:03:47;39.00;;;18.75;;
49241;SDS011;35079;52.704;13.814;2023-01-24T08:06:14;37.70;;;17.40;;
49241;SDS011;35079;52.704;13.814;2023-01-24T08:08:40;40.13;;;17.88;;
49241;SDS011;35079;52.704;13.814;2023-01-24T08:11:06;37.78;;;19.15;;
49241;SDS011;35079;52.704;13.814;2023-01-24T08:13:35;39.33;;;17.70;;
49241;SDS011;35079;52.704;13.814;2023-01-24T08:16:01;37.58;;;18.05;;
49241;SDS011;35079;52.704;13.814;2023-01-24T08:18:27;34.92;;;17.75;;
49241;SDS011;35079;52.704;13.814;2023-01-24T08:20:56;33.70;;;18.08;;
49241;SDS011;35079;52.704;13.814;2023-01-24T08:23:21;40.63;;;19.13;;
49241;SDS011;35079;52.704;13.814;2023-01-24T08:25:47;39.25;;;18.85;;
49241;SDS011;35079;52.704;13.814;2023-01-24T08:28:13;34.03;;;18.02;;
49241;SDS011;35079;52.704;13.814;2023-01-24T08:30:39;40.08;;;19.05;;
49241;SDS011;35079;52.704;13.814;2023-01-24T08:33:05;34.90;;;17.95;;
49241;SDS011;35079;52.704;13.814;2023-01-24T08:35:31;36.53;;;18.90;;
49241;SDS011;35079;52.704;13.814;2023-01-24T08:37:57;38.13;;;19.63;;
49241;SDS011;35079;52.704;13.814;2023-01-24T08:40:23;33.45;;;18.73;;
49241;SDS011;35079;52.704;13.814;2023-01-24T08:42:49;35.15;;;19.45;;
49241;SDS011;35079;52.704;13.814;2023-01-24T08:45:15;40.92;;;20.35;;
49241;SDS011;35079;52.704;13.814;2023-01-24T08:47:41;40.17;;;19.70;;
49241;SDS011;35079;52.704;13.814;2023-01-24T08:50:07;35.85;;;19.73;;
49241;SDS011;35079;52.704;13.814;2023-01-24T08:52:33;38.88;;;20.85;;
49241;SDS011;35079;52.704;13.814;2023-01-24T08:54:59;38.30;;;19.95;;
49241;SDS011;35079;52.704;13.814;2023-01-24T08:57:25;39.25;;;20.77;;
49241;SDS011;35079;52.704;13.814;2023-01-24T08:59:50;40.55;;;20.10;;
49241;SDS011;35079;52.704;13.814;2023-01-24T09:02:16;40.72;;;20.27;;
49241;SDS011;35079;52.704;13.814;2023-01-24T09:04:42;40.67;;;20.50;;
49241;SDS011;35079;52.704;13.814;2023-01-24T09:07:10;38.47;;;19.50;;
49241;SDS011;35079;52.704;13.814;2023-01-24T09:09:36;39.72;;;19.23;;
49241;SDS011;35079;52.704;13.814;2023-01-24T09:12:02;36.17;;;17.88;;
49241;SDS011;35079;52.704;13.814;2023-01-24T09:14:28;37.95;;;19.77;;
49241;SDS011;35079;52.704;13.814;2023-01-24T09:16:53;39.25;;;19.63;;
49241;SDS011;35079;52.704;13.814;2023-01-24T09:19:19;39.47;;;18.98;;
49241;SDS011;35079;52.704;13.814;2023-01-24T09:21:45;44.05;;;20.63;;
49241;SDS011;35079;52.704;13.814;2023-01-24T09:24:16;41.95;;;19.13;;
49241;SDS011;35079;52.704;13.814;2023-01-24T09:26:43;46.55;;;19.85;;
49241;SDS011;35079;52.704;13.814;2023-01-24T09:29:09;43.08;;;21.15;;
49241;SDS011;35079;52.704;13.814;2023-01-24T09:31:37;42.53;;;20.02;;
49241;SDS011;35079;52.704;13.814;2023-01-24T09:34:03;43.63;;;20.27;;
49241;SDS011;35079;52.704;13.814;2023-01-24T09:36:29;45.10;;;19.88;;
49241;SDS011;35079;52.704;13.814;2023-01-24T09:39:04;47.65;;;19.73;;
49241;SDS011;35079;52.704;13.814;2023-01-24T09:41:44;42.65;;;19.45;;
49241;SDS011;35079;52.704;13.814;2023-01-24T09:46:59;54.38;;;22.45;;
49241;SDS011;35079;52.704;13.814;2023-01-24T09:49:39;45.92;;;20.20;;
49241;SDS011;35079;52.704;13.814;2023-01-24T09:52:13;52.58;;;19.92;;
49241;SDS011;35079;52.704;13.814;2023-01-24T09:54:57;50.85;;;20.60;;
49241;SDS011;35079;52.704;13.814;2023-01-24T09:57:45;47.28;;;19.85;;
49241;SDS011;35079;52.704;13.814;2023-01-24T10:00:35;56.30;;;21.42;;
49241;SDS011;35079;52.704;13.814;2023-01-24T10:03:03;57.15;;;21.13;;
49241;SDS011;35079;52.704;13.814;2023-01-24T10:05:43;56.08;;;21.13;;
49241;SDS011;35079;52.704;13.814;2023-01-24T10:08:20;60.08;;;22.30;;
49241;SDS011;35079;52.704;13.814;2023-01-24T10:14:56;47.05;;;20.65;;
49241;SDS011;35079;52.704;13.814;2023-01-24T10:17:25;50.72;;;21.55;;
49241;SDS011;35079;52.704;13.814;2023-01-24T10:20:36;49.72;;;21.83;;
49241;SDS011;35079;52.704;13.814;2023-01-24T10:23:15;50.58;;;20.00;;
49241;SDS011;35079;52.704;13.814;2023-01-24T10:25:48;45.08;;;18.63;;
49241;SDS011;35079;52.704;13.814;2023-01-24T10:28:26;50.50;;;19.58;;
49241;SDS011;35079;52.704;13.814;2023-01-24T10:31:00;47.65;;;20.38;;
49241;SDS011;35079;52.704;13.814;2023-01-24T10:33:37;45.63;;;20.48;;
49241;SDS011;35079;52.704;13.814;2023-01-24T10:39:10;48.67;;;19.98;;
49241;SDS011;35079;52.704;13.814;2023-01-24T10:41:36;49.72;;;20.30;;
49241;SDS011;35079;52.704;13.814;2023-01-24T10:44:04;43.72;;;19.65;;
49241;SDS011;35079;52.704;13.814;2023-01-24T10:49:47;46.53;;;19.67;;
49241;SDS011;35079;52.704;13.814;2023-01-24T10:52:29;43.28;;;18.55;;
49241;SDS011;35079;52.704;13.814;2023-01-24T10:54:57;47.47;;;19.10;;
49241;SDS011;35079;52.704;13.814;2023-01-24T10:57:42;49.80;;;19.88;;
49241;SDS011;35079;52.704;13.814;2023-01-24T11:02:46;46.60;;;17.63;;
49241;SDS011;35079;52.704;13.814;2023-01-24T11:05:14;43.47;;;19.30;;
49241;SDS011;35079;52.704;13.814;2023-01-24T11:07:46;49.17;;;19.10;;
49241;SDS011;35079;52.704;13.814;2023-01-24T11:10:35;46.97;;;17.35;;
49241;SDS011;35079;52.704;13.814;2023-01-24T11:13:03;49.70;;;18.75;;
49241;SDS011;35079;52.704;13.814;2023-01-24T11:16:04;44.45;;;19.08;;
49241;SDS011;35079;52.704;13.814;2023-01-24T11:18:31;40.28;;;17.75;;
49241;SDS011;35079;52.704;13.814;2023-01-24T11:21:09;47.22;;;18.90;;
49241;SDS011;35079;52.704;13.814;2023-01-24T11:23:39;52.45;;;19.85;;
49241;SDS011;35079;52.704;13.814;2023-01-24T11:26:22;49.03;;;19.55;;
49241;SDS011;35079;52.704;13.814;2023-01-24T11:28:57;45.80;;;19.17;;
49241;SDS011;35079;52.704;13.814;2023-01-24T11:37:56;46.83;;;18.10;;
49241;SDS011;35079;52.704;13.814;2023-01-24T11:40:42;42.53;;;18.65;;
49241;SDS011;35079;52.704;13.814;2023-01-24T11:49:04;37.63;;;17.35;;
49241;SDS011;35079;52.704;13.814;2023-01-24T11:52:59;46.97;;;20.55;;
49241;SDS011;35079;52.704;13.814;2023-01-24T11:55:02;48.60;;;18.65;;
49241;SDS011;35079;52.704;13.814;2023-01-24T12:00:27;41.17;;;18.80;;
49241;SDS011;35079;52.704;13.814;2023-01-24T12:03:14;42.83;;;18.00;;
49241;SDS011;35079;52.704;13.814;2023-01-24T12:19:39;41.22;;;16.42;;
49241;SDS011;35079;52.704;13.814;2023-01-24T12:22:27;35.70;;;17.15;;
49241;SDS011;35079;52.704;13.814;2023-01-24T12:24:59;44.13;;;18.27;;
49241;SDS011;35079;52.704;13.814;2023-01-24T12:27:29;38.42;;;16.80;;
49241;SDS011;35079;52.704;13.814;2023-01-24T12:29:59;38.20;;;17.13;;
49241;SDS011;35079;52.704;13.814;2023-01-24T12:32:38;35.65;;;15.57;;
49241;SDS011;35079;52.704;13.814;2023-01-24T12:35:28;34.65;;;14.73;;
49241;SDS011;35079;52.704;13.814;2023-01-24T12:38:04;37.55;;;16.90;;
49241;SDS011;35079;52.704;13.814;2023-01-24T12:51:53;30.67;;;13.77;;
49241;SDS011;35079;52.704;13.814;2023-01-24T12:54:25;31.30;;;14.02;;
49241;SDS011;35079;52.704;13.814;2023-01-24T13:00:03;33.45;;;15.75;;
49241;SDS011;35079;52.704;13.814;2023-01-24T13:02:46;28.98;;;14.02;;
49241;SDS011;35079;52.704;13.814;2023-01-24T13:05:36;32.58;;;13.57;;
49241;SDS011;35079;52.704;13.814;2023-01-24T13:08:28;25.92;;;12.45;;
49241;SDS011;35079;52.704;13.814;2023-01-24T13:14:13;25.77;;;12.75;;
49241;SDS011;35079;52.704;13.814;2023-01-24T13:31:25;28.60;;;12.90;;
49241;SDS011;35079;52.704;13.814;2023-01-24T13:34:26;30.73;;;12.93;;
49241;SDS011;35079;52.704;13.814;2023-01-24T13:36:59;23.50;;;13.63;;
49241;SDS011;35079;52.704;13.814;2023-01-24T13:39:37;29.58;;;12.77;;
49241;SDS011;35079;52.704;13.814;2023-01-24T13:42:23;24.17;;;12.00;;
49241;SDS011;35079;52.704;13.814;2023-01-24T13:44:56;28.23;;;11.93;;
49241;SDS011;35079;52.704;13.814;2023-01-24T13:47:22;27.85;;;13.10;;
49241;SDS011;35079;52.704;13.814;2023-01-24T13:55:00;27.75;;;12.38;;
49241;SDS011;35079;52.704;13.814;2023-01-24T14:00:33;25.75;;;14.07;;
49241;SDS011;35079;52.704;13.814;2023-01-24T14:03:19;22.48;;;11.77;;
49241;SDS011;35079;52.704;13.814;2023-01-24T14:05:51;26.27;;;11.93;;
49241;SDS011;35079;52.704;13.814;2023-01-24T14:08:32;26.50;;;12.20;;
49241;SDS011;35079;52.704;13.814;2023-01-24T14:24:37;25.10;;;12.25;;
49241;SDS011;35079;52.704;13.814;2023-01-24T14:27:38;26.38;;;12.93;;
49241;SDS011;35079;52.704;13.814;2023-01-24T14:33:13;25.30;;;12.50;;
49241;SDS011;35079;52.704;13.814;2023-01-24T14:41:47;30.42;;;14.07;;
49241;SDS011;35079;52.704;13.814;2023-01-24T14:44:34;32.28;;;12.48;;
49241;SDS011;35079;52.704;13.814;2023-01-24T14:47:06;27.75;;;13.18;;
49241;SDS011;35079;52.704;13.814;2023-01-24T14:49:51;28.30;;;13.93;;
49241;SDS011;35079;52.704;13.814;2023-01-24T14:54:47;26.98;;;13.30;;
49241;SDS011;35079;52.704;13.814;2023-01-24T14:57:32;22.65;;;13.10;;
49241;SDS011;35079;52.704;13.814;2023-01-24T14:59:59;27.95;;;13.57;;
49241;SDS011;35079;52.704;13.814;2023-01-24T15:02:24;25.80;;;12.73;;
49241;SDS011;35079;52.704;13.814;2023-01-24T15:04:50;24.73;;;12.32;;
49241;SDS011;35079;52.704;13.814;2023-01-24T15:07:16;25.48;;;12.85;;
49241;SDS011;35079;52.704;13.814;2023-01-24T15:09:42;26.63;;;12.70;;
49241;SDS011;35079;52.704;13.814;2023-01-24T15:14:53;30.45;;;16.92;;
49241;SDS011;35079;52.704;13.814;2023-01-24T15:17:21;31.88;;;17.13;;
49241;SDS011;35079;52.704;13.814;2023-01-24T15:19:50;31.00;;;14.40;;
49241;SDS011;35079;52.704;13.814;2023-01-24T15:22:38;24.05;;;12.00;;
49241;SDS011;35079;52.704;13.814;2023-01-24T15:25:50;28.85;;;13.15;;
49241;SDS011;35079;52.704;13.814;2023-01-24T15:27:55;22.08;;;11.45;;
49241;SDS011;35079;52.704;13.814;2023-01-24T15:30:23;29.23;;;11.73;;
49241;SDS011;35079;52.704;13.814;2023-01-24T15:46:15;24.60;;;12.82;;
49241;SDS011;35079;52.704;13.814;2023-01-24T15:51:45;20.65;;;12.13;;
49241;SDS011;35079;52.704;13.814;2023-01-24T15:54:46;25.52;;;12.60;;
49241;SDS011;35079;52.704;13.814;2023-01-24T15:57:29;26.20;;;12.65;;
49241;SDS011;35079;52.704;13.814;2023-01-24T16:02:21;25.50;;;12.05;;
49241;SDS011;35079;52.704;13.814;2023-01-24T16:04:47;25.67;;;12.68;;
49241;SDS011;35079;52.704;13.814;2023-01-24T16:07:13;25.17;;;13.60;;
49241;SDS011;35079;52.704;13.814;2023-01-24T16:09:40;30.60;;;12.82;;
49241;SDS011;35079;52.704;13.814;2023-01-24T16:12:05;23.60;;;12.48;;
49241;SDS011;35079;52.704;13.814;2023-01-24T16:14:37;22.58;;;12.13;;
49241;SDS011;35079;52.704;13.814;2023-01-24T16:17:05;20.92;;;11.45;;
49241;SDS011;35079;52.704;13.814;2023-01-24T16:19:31;23.67;;;11.75;;
49241;SDS011;35079;52.704;13.814;2023-01-24T16:24:30;22.60;;;12.25;;
49241;SDS011;35079;52.704;13.814;2023-01-24T16:26:55;25.75;;;12.65;;
49241;SDS011;35079;52.704;13.814;2023-01-24T16:29:25;28.38;;;12.82;;
49241;SDS011;35079;52.704;13.814;2023-01-24T16:31:53;23.88;;;12.70;;
49241;SDS011;35079;52.704;13.814;2023-01-24T16:34:19;21.15;;;11.85;;
49241;SDS011;35079;52.704;13.814;2023-01-24T16:36:45;28.50;;;12.98;;
49241;SDS011;35079;52.704;13.814;2023-01-24T16:39:15;26.23;;;13.80;;
49241;SDS011;35079;52.704;13.814;2023-01-24T16:41:43;26.75;;;13.82;;
49241;SDS011;35079;52.704;13.814;2023-01-24T16:44:10;22.75;;;12.57;;
49241;SDS011;35079;52.704;13.814;2023-01-24T16:46:36;26.42;;;12.80;;
49241;SDS011;35079;52.704;13.814;2023-01-24T16:49:01;28.38;;;14.07;;
49241;SDS011;35079;52.704;13.814;2023-01-24T16:51:27;25.63;;;13.15;;
49241;SDS011;35079;52.704;13.814;2023-01-24T16:53:55;23.08;;;12.20;;
49241;SDS011;35079;52.704;13.814;2023-01-24T16:56:22;26.17;;;12.88;;
49241;SDS011;35079;52.704;13.814;2023-01-24T16:58:48;25.10;;;12.95;;
49241;SDS011;35079;52.704;13.814;2023-01-24T17:01:18;27.48;;;12.63;;
49241;SDS011;35079;52.704;13.814;2023-01-24T17:03:43;27.65;;;12.80;;
49241;SDS011;35079;52.704;13.814;2023-01-24T17:06:11;22.92;;;12.98;;
49241;SDS011;35079;52.704;13.814;2023-01-24T17:08:38;27.38;;;12.70;;
49241;SDS011;35079;52.704;13.814;2023-01-24T17:11:05;28.88;;;12.90;;
49241;SDS011;35079;52.704;13.814;2023-01-24T17:13:32;29.60;;;13.30;;
49241;SDS011;35079;52.704;13.814;2023-01-24T17:16:05;24.85;;;12.35;;